Terminal Aerodrome Forecast
Issued by NWS

Home | Current Version | Previous Version | Graphics & Text | Print | Product List | Glossary On
Versions: 1 2 3 4 5 6 7 8 9 10 11 12 13 14 15 16 17 18 19 20 21 22 23 24 25 26 27 28 29 30 31 32
728
FTUS43 KGRB 111141
TAFCWA
TAF
KCWA 111141Z 1112/1212 16006KT 4SM -SHSN SCT015 OVC030
      TEMPO 1112/1114 1 1/2SM -SHSN OVC015
     FM111400 16005KT 2SM -SHSN BKN015 OVC025
      TEMPO 1114/1116 3/4SM -SHSN BKN009
     FM111600 24004KT 4SM -SHSN OVC015
     FM112000 32009KT P6SM -SHSN OVC025
     FM112200 33015G25KT P6SM BKN025
     FM120600 32013G23KT P6SM SCT035=

USA.gov is the U.S. government's official web portal to all federal, state and local government web resources and services.